Time;durP1;ratioP1;P1;durP2;ratioP2;P2;SDS_P1;SDS_P2;PMS_P1;PMS_P2;Temp;Humidity;BMP_temperature;BMP_pressure;BME280_temperature;BME280_humidity;BME280_pressure;Samples;Min_cycle;Max_cycle;Signal;HPM_P1;HPM_P2
2021/10/31 05:30:52;;;;;;;8.03;4.90;;;9.70;99.90;;;;;;5964323;23;20425;-72
2021/10/31 05:33:19;;;;;;;6.40;5.80;;;9.70;99.90;;;;;;4975948;28;20407;-73
2021/10/31 05:35:45;;;;;;;5.63;4.90;;;9.70;99.90;;;;;;4988813;28;20463;-75
2021/10/31 05:38:13;;;;;;;7.17;6.10;;;9.70;99.90;;;;;;4992336;28;20413;-75
2021/10/31 05:40:38;;;;;;;5.97;5.47;;;9.70;99.90;;;;;;4992525;28;20495;-75
2021/10/31 05:43:04;;;;;;;6.00;5.13;;;9.60;99.90;;;;;;4992130;28;20499;-74
2021/10/31 05:45:29;;;;;;;10.10;6.27;;;9.60;99.90;;;;;;4992363;28;20178;-74
2021/10/31 05:47:55;;;;;;;8.13;5.80;;;9.60;99.90;;;;;;4991195;28;20729;-74
2021/10/31 05:50:21;;;;;;;6.17;5.10;;;9.60;99.90;;;;;;4992137;28;20300;-75
2021/10/31 05:52:47;;;;;;;9.03;6.57;;;9.50;99.90;;;;;;4992105;28;20690;-74
2021/10/31 05:55:14;;;;;;;6.07;5.17;;;9.40;99.90;;;;;;4992193;28;20419;-73
2021/10/31 05:57:40;;;;;;;9.37;6.97;;;9.50;99.90;;;;;;4992398;28;20796;-74
2021/10/31 06:00:09;;;;;;;7.07;6.37;;;9.40;99.90;;;;;;4992125;28;20417;-74
2021/10/31 06:02:35;;;;;;;6.30;5.67;;;9.40;99.90;;;;;;4991330;28;20436;-74
2021/10/31 06:05:04;;;;;;;6.33;5.60;;;9.40;99.90;;;;;;4992335;28;20422;-73
2021/10/31 06:07:31;;;;;;;6.13;5.53;;;9.40;99.90;;;;;;4994042;28;20267;-71
2021/10/31 06:09:56;;;;;;;7.50;6.33;;;9.40;99.90;;;;;;4996086;28;20459;-72
2021/10/31 06:12:22;;;;;;;6.77;6.07;;;9.40;99.90;;;;;;4995716;28;20912;-70
2021/10/31 06:14:48;;;;;;;8.93;6.27;;;9.40;99.90;;;;;;4996064;28;20177;-69
2021/10/31 06:17:14;;;;;;;5.90;5.30;;;9.40;99.90;;;;;;4995876;28;20504;-71
2021/10/31 06:19:39;;;;;;;6.50;5.90;;;9.40;99.90;;;;;;4995987;28;20209;-72
2021/10/31 06:22:05;;;;;;;8.23;7.17;;;9.50;99.90;;;;;;4995811;28;20202;-70
2021/10/31 06:24:31;;;;;;;9.80;6.80;;;9.50;99.90;;;;;;4995927;28;20182;-71
2021/10/31 06:26:57;;;;;;;7.80;6.40;;;9.50;99.90;;;;;;4995837;28;20260;-70
2021/10/31 06:29:23;;;;;;;7.27;6.20;;;9.60;99.90;;;;;;4995746;28;20645;-72
2021/10/31 06:31:48;;;;;;;6.40;5.80;;;9.60;99.90;;;;;;4995366;28;20458;-72
2021/10/31 06:34:14;;;;;;;6.23;5.63;;;9.70;99.90;;;;;;4995572;28;20208;-71
2021/10/31 06:36:40;;;;;;;6.30;5.70;;;9.80;99.90;;;;;;4995577;28;20213;-72
2021/10/31 06:39:06;;;;;;;6.00;5.40;;;9.90;99.90;;;;;;4995668;28;20225;-71
2021/10/31 06:41:32;;;;;;;5.77;5.17;;;10.00;99.90;;;;;;4995346;28;20292;-71
2021/10/31 06:43:57;;;;;;;10.07;6.50;;;10.00;99.90;;;;;;4995433;28;20506;-72
2021/10/31 06:46:24;;;;;;;8.00;6.40;;;10.10;99.90;;;;;;4995358;28;20788;-71
2021/10/31 06:48:51;;;;;;;15.00;6.90;;;10.10;99.90;;;;;;4995469;28;20264;-70
2021/10/31 06:51:17;;;;;;;7.10;6.50;;;10.20;99.90;;;;;;4994060;28;20517;-72
2021/10/31 06:53:42;;;;;;;10.73;6.70;;;10.30;99.90;;;;;;4995176;28;20430;-71
2021/10/31 06:56:08;;;;;;;8.73;6.90;;;10.50;99.90;;;;;;4995165;28;20268;-72
2021/10/31 06:58:34;;;;;;;9.93;5.77;;;10.60;99.90;;;;;;4995289;28;20178;-71
2021/10/31 07:00:59;;;;;;;9.17;6.93;;;10.80;99.90;;;;;;4995407;28;20203;-72
2021/10/31 07:03:25;;;;;;;7.60;6.37;;;11.00;99.90;;;;;;4994786;28;20213;-71
2021/10/31 07:05:52;;;;;;;8.00;6.67;;;11.40;99.90;;;;;;4995139;28;20194;-72
2021/10/31 07:08:17;;;;;;;8.50;6.60;;;12.10;99.90;;;;;;4994867;28;20176;-73
2021/10/31 07:10:43;;;;;;;8.43;5.60;;;12.80;99.90;;;;;;4995032;28;20427;-72
2021/10/31 07:13:08;;;;;;;6.73;6.10;;;13.60;99.90;;;;;;4994724;28;20187;-72
2021/10/31 07:15:34;;;;;;;7.57;6.30;;;14.20;99.90;;;;;;4995130;28;20262;-73
2021/10/31 07:18:00;;;;;;;7.17;6.10;;;14.70;99.90;;;;;;4994371;28;20171;-73
2021/10/31 07:20:25;;;;;;;7.97;6.57;;;15.00;99.90;;;;;;4994707;28;20344;-69
2021/10/31 07:22:53;;;;;;;7.60;6.67;;;15.30;99.90;;;;;;4994644;28;20559;-73
2021/10/31 07:25:20;;;;;;;7.67;6.87;;;15.70;99.90;;;;;;4994680;28;20181;-72
2021/10/31 07:27:46;;;;;;;7.27;6.57;;;16.20;99.90;;;;;;4994840;28;20445;-72
2021/10/31 07:30:12;;;;;;;6.90;6.30;;;16.50;99.90;;;;;;4994673;28;20422;-72
2021/10/31 07:32:38;;;;;;;8.67;6.93;;;16.60;99.90;;;;;;4994224;28;20222;-73
2021/10/31 07:35:06;;;;;;;7.20;6.50;;;16.50;99.90;;;;;;4994712;28;20411;-72
2021/10/31 07:37:32;;;;;;;8.10;7.30;;;16.80;99.90;;;;;;4994586;28;20266;-72
2021/10/31 07:39:58;;;;;;;7.93;7.10;;;16.20;99.90;;;;;;4994379;28;20794;-72
2021/10/31 07:42:28;;;;;;;7.83;7.03;;;16.40;99.90;;;;;;4994078;28;20807;-72
2021/10/31 07:44:55;;;;;;;7.73;7.03;;;16.70;99.90;;;;;;4994412;28;20887;-72
2021/10/31 07:47:21;;;;;;;8.20;7.40;;;17.10;99.90;;;;;;4994306;28;20437;-72
2021/10/31 07:49:46;;;;;;;7.93;7.20;;;17.50;99.90;;;;;;4994341;28;20422;-72
2021/10/31 07:52:12;;;;;;;9.50;6.90;;;17.70;99.90;;;;;;4993817;28;20196;-72
2021/10/31 07:54:37;;;;;;;9.07;7.93;;;17.80;99.90;;;;;;4994260;28;20175;-72
2021/10/31 07:57:05;;;;;;;10.10;8.83;;;16.90;99.90;;;;;;4994166;28;20210;-72
2021/10/31 07:59:31;;;;;;;10.93;8.67;;;16.20;99.90;;;;;;4992760;28;20727;-72
2021/10/31 08:01:56;;;;;;;8.80;7.77;;;15.70;99.90;;;;;;4993963;28;20517;-71
2021/10/31 08:04:23;;;;;;;8.20;7.20;;;15.30;99.90;;;;;;4993790;28;20206;-72
2021/10/31 08:06:49;;;;;;;9.63;7.53;;;15.00;99.90;;;;;;4994129;28;20178;-72
2021/10/31 08:09:14;;;;;;;9.00;8.10;;;14.80;99.90;;;;;;4993712;28;20431;-72
2021/10/31 08:11:43;;;;;;;9.17;7.93;;;14.60;99.90;;;;;;4993933;28;20721;-72
2021/10/31 08:14:10;;;;;;;8.27;7.50;;;14.40;99.90;;;;;;4993604;28;20170;-72
2021/10/31 08:16:36;;;;;;;7.23;6.50;;;14.30;99.90;;;;;;4990759;28;20454;-72
2021/10/31 08:19:03;;;;;;;9.57;7.93;;;14.30;99.90;;;;;;4975034;28;20412;-72
2021/10/31 08:21:29;;;;;;;7.90;6.67;;;14.40;99.90;;;;;;4973854;28;20445;-72
2021/10/31 08:23:55;;;;;;;7.90;7.10;;;14.40;99.90;;;;;;4973952;28;20415;-72
2021/10/31 08:26:20;;;;;;;9.17;8.17;;;14.40;99.90;;;;;;4973881;28;20921;-72
2021/10/31 08:28:46;;;;;;;11.00;8.00;;;14.40;99.90;;;;;;4973881;28;20179;-72
2021/10/31 08:31:11;;;;;;;8.57;6.90;;;14.50;99.90;;;;;;4972897;28;20712;-72
2021/10/31 08:33:43;;;;;;;8.77;6.73;;;14.50;99.90;;;;;;4973692;28;20185;-72
2021/10/31 08:36:09;;;;;;;11.00;7.60;;;14.50;99.90;;;;;;4973779;28;20199;-71
2021/10/31 08:38:35;;;;;;;12.60;7.77;;;14.60;99.90;;;;;;4973730;28;20503;-72
2021/10/31 08:41:01;;;;;;;10.40;7.43;;;14.60;99.90;;;;;;4973629;28;20570;-72
2021/10/31 08:43:26;;;;;;;6.70;6.10;;;14.70;99.90;;;;;;4973744;28;20207;-72
2021/10/31 08:45:52;;;;;;;9.83;7.60;;;14.90;99.90;;;;;;4973776;28;20215;-72
2021/10/31 08:48:18;;;;;;;9.10;7.67;;;14.90;99.90;;;;;;4973408;28;20202;-72
2021/10/31 08:50:45;;;;;;;6.43;5.87;;;15.00;99.90;;;;;;4973633;28;20187;-72
2021/10/31 08:53:11;;;;;;;5.97;5.37;;;15.40;99.90;;;;;;4973095;28;20420;-72
2021/10/31 08:55:40;;;;;;;6.17;5.57;;;15.70;99.90;;;;;;4973692;28;20473;-73
2021/10/31 08:58:10;;;;;;;8.00;6.17;;;15.90;99.90;;;;;;4973399;28;20582;-73
2021/10/31 09:00:40;;;;;;;6.80;6.10;;;16.10;99.90;;;;;;4973327;28;20418;-72
2021/10/31 09:03:06;;;;;;;7.87;6.47;;;16.40;99.90;;;;;;4970195;28;20919;-71
2021/10/31 09:05:33;;;;;;;6.97;5.40;;;16.80;99.90;;;;;;4969302;28;20424;-71
2021/10/31 09:07:59;;;;;;;6.67;5.97;;;17.00;99.90;;;;;;4973217;28;20457;-72
2021/10/31 09:10:24;;;;;;;8.33;5.27;;;17.20;99.90;;;;;;4973067;28;20872;-72
2021/10/31 09:12:50;;;;;;;5.93;4.47;;;17.60;99.90;;;;;;4972949;28;20530;-71
2021/10/31 09:15:16;;;;;;;5.83;5.33;;;17.70;99.90;;;;;;4972766;28;20259;-71
2021/10/31 09:17:43;;;;;;;5.93;5.37;;;17.70;99.90;;;;;;4972246;28;20680;-72
2021/10/31 09:20:09;;;;;;;5.77;5.17;;;17.90;99.90;;;;;;4972726;28;20422;-72
2021/10/31 09:22:34;;;;;;;4.73;4.30;;;18.10;99.90;;;;;;4972532;28;20234;-72
2021/10/31 09:25:00;;;;;;;5.23;4.70;;;18.20;99.90;;;;;;4972933;28;20454;-72
2021/10/31 09:27:26;;;;;;;4.40;3.73;;;18.40;99.90;;;;;;4972539;28;20211;-72
2021/10/31 09:29:52;;;;;;;3.60;3.30;;;18.70;99.90;;;;;;4972780;28;20788;-72
2021/10/31 09:32:20;;;;;;;3.43;3.13;;;19.00;99.90;;;;;;4972222;28;20303;-71
2021/10/31 09:34:48;;;;;;;3.33;3.00;;;19.40;99.90;;;;;;4972643;28;20243;-72
2021/10/31 09:37:14;;;;;;;5.70;2.67;;;19.80;99.90;;;;;;4972015;28;20463;-72
2021/10/31 09:39:40;;;;;;;3.43;3.13;;;20.20;99.90;;;;;;4972739;28;20263;-73
2021/10/31 09:42:06;;;;;;;4.00;2.70;;;20.10;99.90;;;;;;4972242;28;20522;-72
2021/10/31 09:44:39;;;;;;;3.20;2.40;;;20.20;99.90;;;;;;4972656;28;20172;-73
2021/10/31 09:47:05;;;;;;;2.67;2.43;;;20.20;99.90;;;;;;4972102;28;20486;-72
2021/10/31 09:49:30;;;;;;;2.17;2.03;;;20.10;99.90;;;;;;4972321;28;20419;-72
2021/10/31 09:51:56;;;;;;;2.70;2.60;;;20.30;99.90;;;;;;4972492;28;20203;-72
2021/10/31 09:54:22;;;;;;;2.03;1.93;;;20.40;99.90;;;;;;4970796;28;20180;-72
2021/10/31 09:56:48;;;;;;;2.20;2.00;;;20.20;99.90;;;;;;4972038;28;20474;-72
2021/10/31 09:59:16;;;;;;;3.87;2.57;;;20.50;99.90;;;;;;4972232;28;20672;-72
2021/10/31 10:04:31;;;;;;;3.03;2.83;;;20.80;99.90;;;;;;4972354;28;20975;-73
2021/10/31 10:06:58;;;;;;;3.10;2.27;;;20.90;99.90;;;;;;4972184;28;20850;-72
2021/10/31 10:09:29;;;;;;;4.80;2.83;;;21.30;99.90;;;;;;4972259;28;20423;-73
2021/10/31 10:11:55;;;;;;;4.20;2.70;;;21.60;99.90;;;;;;4972285;28;20445;-72
2021/10/31 10:14:26;;;;;;;2.47;2.30;;;21.70;99.90;;;;;;4971926;28;20503;-72
2021/10/31 10:16:58;;;;;;;1.97;1.77;;;21.60;99.90;;;;;;4971904;28;20467;-73
2021/10/31 10:19:26;;;;;;;1.60;1.50;;;21.40;99.90;;;;;;4970854;28;20794;-71
2021/10/31 10:21:55;;;;;;;2.60;2.40;;;21.60;99.90;;;;;;4972248;28;20432;-73
2021/10/31 10:24:23;;;;;;;3.17;2.80;;;21.60;99.90;;;;;;4971018;28;20407;-72
2021/10/31 10:26:50;;;;;;;2.53;2.33;;;21.80;99.90;;;;;;4970674;28;20415;-72
2021/10/31 10:29:39;;;;;;;3.03;2.83;;;21.70;99.90;;;;;;4971720;28;20469;-72
2021/10/31 10:32:06;;;;;;;6.77;2.77;;;21.90;99.90;;;;;;4971463;28;20461;-74
2021/10/31 10:34:41;;;;;;;5.90;2.90;;;22.10;99.90;;;;;;4970920;28;20426;-72
2021/10/31 10:37:10;;;;;;;3.23;2.67;;;22.10;99.90;;;;;;4972088;28;20470;-73
2021/10/31 10:39:37;;;;;;;3.00;2.77;;;21.90;99.90;;;;;;4972192;28;20423;-72
2021/10/31 10:42:03;;;;;;;2.57;2.43;;;22.20;99.90;;;;;;4971992;28;20428;-72
2021/10/31 10:44:32;;;;;;;2.97;2.77;;;22.00;99.90;;;;;;4972021;28;20416;-73
2021/10/31 10:47:04;;;;;;;2.23;2.10;;;22.10;99.90;;;;;;4972126;28;21027;-72
2021/10/31 10:49:32;;;;;;;6.03;3.10;;;22.20;99.90;;;;;;4972915;28;20841;-73
2021/10/31 10:52:19;;;;;;;2.13;2.03;;;22.20;99.90;;;;;;4972027;28;20475;-73
2021/10/31 10:54:46;;;;;;;3.93;3.63;;;22.10;99.90;;;;;;4975983;28;20422;-73
2021/10/31 10:57:11;;;;;;;2.80;2.50;;;22.40;99.90;;;;;;4975485;28;20514;-72
2021/10/31 10:59:38;;;;;;;2.27;2.13;;;22.70;99.90;;;;;;4974827;28;20431;-73
2021/10/31 11:02:07;;;;;;;2.77;2.10;;;22.80;99.90;;;;;;4975411;28;20188;-73
2021/10/31 11:04:34;;;;;;;2.10;2.00;;;22.90;99.90;;;;;;4975450;28;20408;-73
2021/10/31 11:07:00;;;;;;;2.30;2.20;;;22.50;99.90;;;;;;4975627;28;20474;-73
2021/10/31 11:09:26;;;;;;;2.13;1.97;;;22.30;99.90;;;;;;4975246;28;20419;-73
2021/10/31 11:11:52;;;;;;;3.90;2.60;;;22.20;99.90;;;;;;4975453;28;20442;-73
2021/10/31 11:14:18;;;;;;;2.33;2.23;;;22.00;99.90;;;;;;4975127;28;20180;-73
2021/10/31 11:16:44;;;;;;;2.30;2.20;;;21.80;99.90;;;;;;4975357;28;20282;-73
2021/10/31 11:19:10;;;;;;;2.37;2.10;;;21.60;99.90;;;;;;4975171;28;20967;-72
2021/10/31 11:21:35;;;;;;;2.80;2.60;;;21.50;99.90;;;;;;4975285;28;20491;-73
2021/10/31 11:24:03;;;;;;;2.27;2.17;;;21.40;99.90;;;;;;4975132;28;20179;-73
2021/10/31 11:26:32;;;;;;;8.80;5.57;;;21.50;99.90;;;;;;4975127;28;20173;-72
2021/10/31 11:28:58;;;;;;;2.73;2.50;;;21.50;99.90;;;;;;4975027;28;20446;-73
2021/10/31 11:31:24;;;;;;;2.20;2.00;;;21.50;99.90;;;;;;4974740;28;20825;-75
2021/10/31 11:33:50;;;;;;;2.50;1.97;;;21.40;99.90;;;;;;4975113;28;20717;-74
2021/10/31 11:36:17;;;;;;;1.90;1.80;;;21.60;99.90;;;;;;4974699;28;20203;-75
2021/10/31 11:38:43;;;;;;;3.40;3.07;;;21.80;99.90;;;;;;4974902;28;20408;-75
2021/10/31 11:41:10;;;;;;;1.67;1.57;;;21.90;99.90;;;;;;4974692;28;20797;-75
2021/10/31 11:43:47;;;;;;;2.70;1.77;;;21.90;99.90;;;;;;4974648;28;20498;-75
2021/10/31 11:46:13;;;;;;;4.57;3.10;;;21.90;99.90;;;;;;4974739;28;20419;-75
2021/10/31 11:48:38;;;;;;;3.60;3.40;;;21.90;99.90;;;;;;4974784;28;20968;-74
2021/10/31 11:51:05;;;;;;;3.50;3.20;;;21.60;99.90;;;;;;4974293;28;20200;-74
2021/10/31 11:53:35;;;;;;;3.80;3.50;;;21.50;99.90;;;;;;4974191;28;20172;-74
2021/10/31 11:56:05;;;;;;;4.20;3.03;;;21.40;99.90;;;;;;4973911;28;20458;-74
2021/10/31 11:58:36;;;;;;;2.57;2.37;;;21.30;99.90;;;;;;4977431;28;20453;-74
2021/10/31 12:01:12;;;;;;;2.50;2.30;;;21.20;99.90;;;;;;4994037;28;20462;-72
2021/10/31 12:03:50;;;;;;;2.60;2.40;;;21.00;99.90;;;;;;4993412;28;20441;-74
2021/10/31 12:06:15;;;;;;;6.20;2.30;;;21.00;99.90;;;;;;4993078;28;20421;-74
2021/10/31 12:08:43;;;;;;;5.20;2.53;;;21.00;99.90;;;;;;4993855;28;20415;-74
2021/10/31 12:11:09;;;;;;;6.67;2.67;;;20.90;99.90;;;;;;4993782;28;20194;-74
2021/10/31 12:13:45;;;;;;;3.33;2.67;;;20.80;99.90;;;;;;4993410;28;20419;-74
2021/10/31 12:16:15;;;;;;;2.50;2.27;;;20.80;99.90;;;;;;4993632;28;20234;-74
2021/10/31 12:18:46;;;;;;;2.90;2.50;;;20.70;99.90;;;;;;4991832;28;20418;-74
2021/10/31 12:21:23;;;;;;;2.20;2.00;;;20.90;99.90;;;;;;4973056;28;20439;-74
2021/10/31 12:24:21;;;;;;;1.57;1.47;;;21.00;99.90;;;;;;4973920;28;20492;-74
2021/10/31 12:26:54;;;;;;;1.47;1.37;;;21.00;99.90;;;;;;4973309;28;20415;-74
2021/10/31 12:29:28;;;;;;;1.67;1.57;;;21.00;99.90;;;;;;4973702;28;20447;-73
2021/10/31 12:32:06;;;;;;;1.97;1.77;;;20.90;99.90;;;;;;4973803;28;20466;-74
2021/10/31 12:34:40;;;;;;;2.10;1.60;;;20.90;99.90;;;;;;4973786;28;20415;-75
2021/10/31 12:37:23;;;;;;;1.90;1.60;;;20.90;99.90;;;;;;4973892;28;20553;-75
2021/10/31 12:39:55;;;;;;;4.23;1.77;;;21.00;99.90;;;;;;4973792;28;20809;-75
2021/10/31 12:42:51;;;;;;;2.00;1.80;;;21.00;99.90;;;;;;4973321;28;20435;-74
2021/10/31 12:45:16;;;;;;;4.73;1.67;;;20.90;99.90;;;;;;4973903;28;21077;-74
2021/10/31 12:47:45;;;;;;;2.07;1.43;;;21.00;99.90;;;;;;4973888;28;20411;-75
2021/10/31 12:50:13;;;;;;;1.53;1.43;;;21.00;99.90;;;;;;4973662;28;20279;-75
2021/10/31 12:52:41;;;;;;;1.80;1.67;;;21.00;99.90;;;;;;4973254;28;20436;-75
2021/10/31 12:55:13;;;;;;;2.00;1.77;;;20.90;99.90;;;;;;4973496;28;20423;-75
2021/10/31 12:57:47;;;;;;;2.20;1.80;;;20.80;99.90;;;;;;4973538;28;20494;-75
2021/10/31 13:00:13;;;;;;;2.23;1.63;;;20.70;99.90;;;;;;4973697;28;20491;-74
2021/10/31 13:02:47;;;;;;;3.43;2.20;;;20.70;99.90;;;;;;4972758;28;20526;-75
2021/10/31 13:05:13;;;;;;;2.20;1.90;;;20.60;99.90;;;;;;4973299;28;20172;-76
2021/10/31 13:07:39;;;;;;;2.40;1.53;;;20.70;99.90;;;;;;4973188;28;20423;-75
2021/10/31 13:10:08;;;;;;;1.33;1.23;;;20.70;99.90;;;;;;4973232;28;20258;-75
2021/10/31 13:12:34;;;;;;;3.10;2.43;;;20.70;99.90;;;;;;4972739;28;20198;-75
2021/10/31 13:15:24;;;;;;;1.93;1.43;;;20.70;99.90;;;;;;4973261;28;20440;-75
2021/10/31 13:17:52;;;;;;;1.70;1.60;;;20.80;99.90;;;;;;4973072;28;20184;-75
2021/10/31 13:20:31;;;;;;;1.80;1.70;;;20.70;99.90;;;;;;4972956;28;20447;-74
2021/10/31 13:23:24;;;;;;;2.43;1.83;;;20.70;99.90;;;;;;4972709;28;20411;-75
2021/10/31 13:25:55;;;;;;;1.90;1.70;;;20.70;99.90;;;;;;4971713;28;20427;-75
2021/10/31 13:28:23;;;;;;;1.27;1.20;;;20.60;99.90;;;;;;4972960;28;20491;-75
2021/10/31 13:31:11;;;;;;;1.53;1.40;;;20.70;99.90;;;;;;4972805;28;20499;-75
2021/10/31 13:33:50;;;;;;;1.90;1.77;;;20.70;99.90;;;;;;4972579;28;20502;-75
2021/10/31 13:36:17;;;;;;;1.33;1.13;;;20.60;99.90;;;;;;4972769;28;20462;-74
2021/10/31 13:38:49;;;;;;;1.47;1.37;;;20.60;99.90;;;;;;4972745;28;20434;-75
2021/10/31 13:41:15;;;;;;;2.23;2.03;;;20.60;99.90;;;;;;4972941;28;20443;-75
2021/10/31 13:43:41;;;;;;;4.33;1.50;;;20.60;99.90;;;;;;4972463;28;20431;-75
2021/10/31 13:46:07;;;;;;;1.77;1.67;;;20.60;99.90;;;;;;4972874;28;20423;-75
2021/10/31 13:48:38;;;;;;;2.40;2.20;;;20.60;99.90;;;;;;4972492;28;20183;-75
2021/10/31 13:51:05;;;;;;;1.60;1.50;;;20.60;99.90;;;;;;4972689;28;20819;-75
2021/10/31 13:53:30;;;;;;;2.03;1.90;;;20.50;99.90;;;;;;4972224;28;20498;-75
2021/10/31 13:55:56;;;;;;;2.53;1.87;;;20.50;99.90;;;;;;4972577;28;20471;-74
2021/10/31 13:58:22;;;;;;;3.67;1.70;;;20.50;99.90;;;;;;4972481;28;20553;-74
2021/10/31 14:00:47;;;;;;;2.20;2.00;;;20.50;99.90;;;;;;4972438;28;20176;-74
2021/10/31 14:03:22;;;;;;;1.60;1.50;;;20.50;99.90;;;;;;4972373;28;20604;-75
2021/10/31 14:05:49;;;;;;;1.73;1.40;;;20.40;99.90;;;;;;4972589;28;20559;-74
2021/10/31 14:08:16;;;;;;;4.63;1.40;;;20.50;99.90;;;;;;4972458;28;20419;-75
2021/10/31 14:10:45;;;;;;;3.17;1.73;;;20.50;99.90;;;;;;4972339;28;20429;-75
2021/10/31 14:13:12;;;;;;;2.43;1.83;;;20.40;99.90;;;;;;4972224;28;20415;-75
2021/10/31 14:15:40;;;;;;;1.57;1.13;;;20.50;99.90;;;;;;4972225;28;20428;-75
2021/10/31 14:18:10;;;;;;;3.23;1.33;;;20.50;99.90;;;;;;4972432;28;20494;-74
2021/10/31 14:20:45;;;;;;;1.77;1.67;;;20.40;99.90;;;;;;4972060;28;20426;-75
2021/10/31 14:23:24;;;;;;;1.50;1.27;;;20.40;99.90;;;;;;4972012;28;20506;-75
2021/10/31 14:25:49;;;;;;;1.77;1.67;;;20.40;99.90;;;;;;4972524;28;20419;-75
2021/10/31 14:28:21;;;;;;;1.53;1.43;;;20.40;99.90;;;;;;4973659;28;20822;-75
2021/10/31 14:30:58;;;;;;;1.40;1.30;;;20.30;99.90;;;;;;4975893;28;20180;-76
2021/10/31 14:33:27;;;;;;;2.10;1.30;;;20.30;99.90;;;;;;4975836;28;20411;-75
2021/10/31 14:36:07;;;;;;;5.70;1.80;;;20.30;99.90;;;;;;4976403;28;21018;-75
2021/10/31 14:38:38;;;;;;;1.40;1.30;;;20.20;99.90;;;;;;4975818;28;20415;-75
2021/10/31 14:41:15;;;;;;;1.70;1.60;;;20.20;99.90;;;;;;4983077;28;20443;-74
2021/10/31 14:43:58;;;;;;;2.40;1.80;;;20.20;99.90;;;;;;4995082;28;20414;-74
2021/10/31 14:46:25;;;;;;;1.43;1.20;;;20.10;99.90;;;;;;4995433;28;20418;-75
2021/10/31 14:48:53;;;;;;;2.80;1.53;;;20.10;99.90;;;;;;4995323;28;20410;-73
2021/10/31 14:54:03;;;;;;;1.40;1.30;;;19.90;99.90;;;;;;4995215;28;20422;-74
2021/10/31 14:56:33;;;;;;;2.00;1.87;;;19.90;99.90;;;;;;4994938;28;20469;-73
2021/10/31 14:59:33;;;;;;;1.87;1.77;;;19.80;99.90;;;;;;4995299;28;20412;-74
2021/10/31 15:01:52;;;;;;;2.07;1.77;;;19.80;99.90;;;;;;4993058;28;20795;-72
2021/10/31 15:04:19;;;;;;;3.47;2.10;;;19.70;99.90;;;;;;4994760;28;20407;-72
2021/10/31 15:06:45;;;;;;;2.20;2.00;;;19.60;99.90;;;;;;4995114;28;20280;-72
2021/10/31 15:09:13;;;;;;;2.30;2.10;;;19.50;99.90;;;;;;4994893;28;20966;-71
2021/10/31 15:11:39;;;;;;;2.10;1.90;;;19.50;99.90;;;;;;4994325;28;20673;-72
2021/10/31 15:14:05;;;;;;;1.70;1.60;;;19.30;99.90;;;;;;4993186;28;20418;-72
2021/10/31 15:16:31;;;;;;;2.13;2.00;;;19.20;99.90;;;;;;4993090;28;20524;-71
2021/10/31 15:18:57;;;;;;;2.97;1.90;;;19.10;99.90;;;;;;4994495;28;20254;-72
2021/10/31 15:21:26;;;;;;;4.90;1.70;;;19.10;99.90;;;;;;4994278;28;20517;-72
2021/10/31 15:23:52;;;;;;;3.70;1.27;;;19.00;99.90;;;;;;4994321;28;20450;-72
2021/10/31 15:26:17;;;;;;;2.33;1.70;;;18.90;99.90;;;;;;4994230;28;20814;-72
2021/10/31 15:28:43;;;;;;;6.00;4.77;;;18.80;99.90;;;;;;4994655;28;20175;-72
2021/10/31 15:31:09;;;;;;;6.43;4.80;;;18.70;99.90;;;;;;4994393;28;20207;-71
2021/10/31 15:33:37;;;;;;;8.73;5.37;;;18.60;99.90;;;;;;4994448;28;20188;-72
2021/10/31 15:36:04;;;;;;;5.33;3.80;;;18.30;99.90;;;;;;4994513;28;20202;-71
2021/10/31 15:38:29;;;;;;;8.43;4.20;;;18.30;99.90;;;;;;4994095;28;20411;-72
2021/10/31 15:40:56;;;;;;;4.60;3.67;;;18.10;99.90;;;;;;4994464;28;20511;-71
2021/10/31 15:43:21;;;;;;;7.00;2.60;;;17.90;99.90;;;;;;4994019;28;20522;-72
2021/10/31 15:45:47;;;;;;;6.57;2.87;;;17.80;99.90;;;;;;4994368;28;20418;-72
2021/10/31 15:48:13;;;;;;;2.20;1.80;;;17.60;99.90;;;;;;4993935;28;20179;-71
2021/10/31 15:50:38;;;;;;;2.40;2.20;;;17.40;99.90;;;;;;4994312;28;20171;-72
2021/10/31 15:53:04;;;;;;;2.93;1.93;;;17.20;99.90;;;;;;4993958;28;20250;-72
2021/10/31 15:55:34;;;;;;;7.40;4.13;;;17.10;99.90;;;;;;4994079;28;20266;-71
2021/10/31 15:58:00;;;;;;;5.37;3.57;;;16.90;99.90;;;;;;4994098;28;20222;-72
2021/10/31 16:00:26;;;;;;;4.20;3.47;;;16.70;99.90;;;;;;4993970;28;20444;-72
2021/10/31 16:02:58;;;;;;;4.30;3.37;;;16.50;99.90;;;;;;4978255;28;21040;-72
2021/10/31 16:05:25;;;;;;;9.00;3.70;;;16.30;99.90;;;;;;4970308;28;20215;-71
2021/10/31 16:07:52;;;;;;;6.83;3.13;;;16.10;99.90;;;;;;4986069;28;20455;-71
2021/10/31 16:10:18;;;;;;;10.57;4.27;;;16.00;99.90;;;;;;4986915;28;20848;-72
2021/10/31 16:12:44;;;;;;;5.33;3.20;;;15.80;99.90;;;;;;4983325;28;20956;-71
2021/10/31 16:15:10;;;;;;;4.50;2.57;;;15.70;99.90;;;;;;4985934;28;20533;-71
2021/10/31 16:17:35;;;;;;;3.90;2.37;;;15.50;99.90;;;;;;4974924;28;20272;-71
2021/10/31 16:20:02;;;;;;;4.23;2.77;;;15.40;99.90;;;;;;4992768;28;20226;-71
2021/10/31 16:22:28;;;;;;;5.93;3.60;;;15.20;99.90;;;;;;4980558;28;20208;-73
2021/10/31 16:24:54;;;;;;;3.03;2.73;;;15.10;99.90;;;;;;4984514;28;20482;-75
2021/10/31 16:27:20;;;;;;;6.67;3.00;;;15.00;99.90;;;;;;4973651;28;20214;-75
2021/10/31 16:29:46;;;;;;;3.07;2.50;;;14.80;99.90;;;;;;4982409;28;20466;-75
2021/10/31 16:32:11;;;;;;;4.40;2.93;;;14.60;99.90;;;;;;4992491;28;20584;-74
2021/10/31 16:34:37;;;;;;;4.53;3.23;;;14.60;99.90;;;;;;4992770;28;20276;-74
2021/10/31 16:37:03;;;;;;;5.50;3.13;;;14.40;99.90;;;;;;4971844;28;20318;-76
2021/10/31 16:39:29;;;;;;;9.57;3.10;;;14.30;99.90;;;;;;4978071;28;20551;-75
2021/10/31 16:42:00;;;;;;;5.13;3.53;;;14.20;99.90;;;;;;4969017;28;20569;-75
2021/10/31 16:44:27;;;;;;;11.87;3.20;;;14.10;99.90;;;;;;4988752;28;20464;-75
2021/10/31 16:46:53;;;;;;;5.47;3.33;;;14.00;99.90;;;;;;4984381;28;20549;-75
2021/10/31 16:49:19;;;;;;;5.07;3.80;;;13.90;99.90;;;;;;4968862;28;20533;-75
2021/10/31 16:51:44;;;;;;;4.30;3.90;;;13.90;99.90;;;;;;4991787;28;20281;-74
2021/10/31 16:54:11;;;;;;;8.30;4.57;;;13.80;99.90;;;;;;4980232;28;20540;-74
2021/10/31 16:56:42;;;;;;;6.27;4.93;;;13.70;99.90;;;;;;4990973;28;20226;-75
2021/10/31 16:59:07;;;;;;;7.00;4.33;;;13.60;99.90;;;;;;4982162;28;20984;-75
2021/10/31 17:01:35;;;;;;;6.53;4.80;;;13.60;99.90;;;;;;4987813;28;20497;-75
2021/10/31 17:04:05;;;;;;;8.80;4.90;;;13.50;99.90;;;;;;4981249;28;20691;-75
2021/10/31 17:06:32;;;;;;;13.93;5.80;;;13.50;99.90;;;;;;4987443;28;20882;-75
2021/10/31 17:08:58;;;;;;;9.50;6.33;;;13.40;99.90;;;;;;4987499;28;20458;-75
2021/10/31 17:11:24;;;;;;;11.20;5.37;;;13.30;99.90;;;;;;4980035;28;20516;-75
2021/10/31 17:13:49;;;;;;;7.60;5.30;;;13.30;99.90;;;;;;4980048;28;20826;-75
2021/10/31 17:16:15;;;;;;;8.50;5.00;;;13.10;99.90;;;;;;4991971;28;20227;-75
2021/10/31 17:18:41;;;;;;;6.20;5.47;;;13.00;99.90;;;;;;4991999;28;20317;-75
2021/10/31 17:21:07;;;;;;;8.87;5.33;;;12.90;99.90;;;;;;4979513;28;21030;-75
2021/10/31 17:23:33;;;;;;;9.07;4.90;;;12.80;99.90;;;;;;4991469;28;20482;-75
2021/10/31 17:25:59;;;;;;;13.00;5.93;;;12.80;99.90;;;;;;4991857;28;20676;-75
2021/10/31 17:28:25;;;;;;;11.20;6.87;;;12.70;99.90;;;;;;4991817;28;20449;-75
2021/10/31 17:30:52;;;;;;;10.13;7.20;;;12.60;99.90;;;;;;4975295;28;20565;-75
2021/10/31 17:33:18;;;;;;;8.37;6.47;;;12.60;99.90;;;;;;4981462;28;20218;-75
2021/10/31 17:35:44;;;;;;;9.00;7.50;;;12.50;99.90;;;;;;4991681;28;20504;-75
2021/10/31 17:38:10;;;;;;;11.83;7.67;;;12.50;99.90;;;;;;4991967;28;20219;-73
2021/10/31 17:40:35;;;;;;;7.80;5.87;;;12.40;99.90;;;;;;4984180;28;20478;-74
2021/10/31 17:43:07;;;;;;;10.03;7.20;;;12.40;99.90;;;;;;4970800;28;20216;-75
2021/10/31 17:45:33;;;;;;;10.40;6.93;;;12.30;99.90;;;;;;4980644;28;20238;-75
2021/10/31 17:47:59;;;;;;;6.20;4.60;;;12.30;99.90;;;;;;4985277;28;20498;-75
2021/10/31 17:50:28;;;;;;;4.90;4.07;;;12.40;99.90;;;;;;4983674;28;20466;-75
2021/10/31 17:52:53;;;;;;;6.90;5.23;;;12.50;99.90;;;;;;4967402;28;20239;-75
2021/10/31 17:55:19;;;;;;;4.70;3.33;;;12.60;99.90;;;;;;4976550;28;20486;-75
2021/10/31 17:57:46;;;;;;;5.20;3.97;;;12.70;99.90;;;;;;4991842;28;20222;-75
2021/10/31 18:00:21;;;;;;;4.77;4.00;;;12.90;99.90;;;;;;4991417;28;20290;-75
2021/10/31 18:02:47;;;;;;;3.80;3.37;;;13.10;99.90;;;;;;4991050;28;20466;-75
2021/10/31 18:05:13;;;;;;;4.00;3.30;;;13.30;99.90;;;;;;4979035;28;20465;-75
2021/10/31 18:07:39;;;;;;;3.70;3.30;;;13.60;99.90;;;;;;4991515;28;20302;-76
2021/10/31 18:10:08;;;;;;;3.63;3.33;;;13.70;99.90;;;;;;4967892;28;20274;-75
2021/10/31 18:12:33;;;;;;;4.07;3.60;;;14.00;99.90;;;;;;4978835;28;20489;-75
2021/10/31 18:14:59;;;;;;;3.07;2.73;;;14.20;99.90;;;;;;4973434;28;20510;-75
2021/10/31 18:17:25;;;;;;;3.97;3.07;;;14.40;99.90;;;;;;4967744;28;20729;-75
2021/10/31 18:19:52;;;;;;;3.60;3.30;;;14.60;99.90;;;;;;4983219;28;20207;-75
2021/10/31 18:22:17;;;;;;;3.37;3.13;;;14.70;99.90;;;;;;4978737;28;21120;-74
2021/10/31 18:24:43;;;;;;;6.63;3.20;;;14.80;99.90;;;;;;4991463;28;20454;-75
2021/10/31 18:27:09;;;;;;;4.00;3.47;;;14.90;99.90;;;;;;4960814;28;20219;-75